createdAt,value
2018-08-13T00:00:49.513Z,40.44
2018-08-13T00:02:24.972Z,40.53
2018-08-13T00:04:00.422Z,40.59
2018-08-13T00:05:35.898Z,40.24
2018-08-13T00:07:11.335Z,40.13
2018-08-13T00:08:46.764Z,40.33
2018-08-13T00:10:22.210Z,40.61
2018-08-13T00:11:57.653Z,40.37
2018-08-13T00:13:33.162Z,40.64
2018-08-13T00:15:08.616Z,40.88
2018-08-13T00:16:44.086Z,41.07
2018-08-13T00:18:19.663Z,40.56
2018-08-13T00:19:55.087Z,40.47
2018-08-13T00:21:30.561Z,40.50
2018-08-13T00:23:06.049Z,40.45
2018-08-13T00:24:41.486Z,41.07
2018-08-13T00:26:16.946Z,41.05
2018-08-13T00:27:52.456Z,40.84
2018-08-13T00:29:27.934Z,41.02
2018-08-13T00:31:03.377Z,41.04
2018-08-13T00:32:38.858Z,40.93
2018-08-13T00:34:14.750Z,41.11
2018-08-13T00:35:50.221Z,41.41
2018-08-13T00:37:25.684Z,41.45
2018-08-13T00:39:01.201Z,41.52
2018-08-13T00:40:36.794Z,41.41
2018-08-13T00:42:12.334Z,41.30
2018-08-13T00:43:47.842Z,41.25
2018-08-13T00:45:23.325Z,41.25
2018-08-13T00:46:58.802Z,41.62
2018-08-13T00:48:34.322Z,41.43
2018-08-13T00:50:13.239Z,41.65
2018-08-13T00:51:48.756Z,41.28
2018-08-13T00:53:24.241Z,41.77
2018-08-13T00:54:59.785Z,41.84
2018-08-13T00:56:35.284Z,41.79
2018-08-13T00:58:10.753Z,41.25
2018-08-13T00:59:46.243Z,41.31
2018-08-13T01:01:21.721Z,41.53
2018-08-13T01:02:57.236Z,41.22
2018-08-13T01:04:32.725Z,41.07
2018-08-13T01:06:08.206Z,41.09
2018-08-13T01:07:43.765Z,41.32
2018-08-13T01:09:19.261Z,41.59
2018-08-13T01:10:54.740Z,41.93
2018-08-13T01:12:30.161Z,41.73
2018-08-13T01:14:06.105Z,41.41
2018-08-13T01:15:41.579Z,41.38
2018-08-13T01:17:17.078Z,41.61
2018-08-13T01:18:52.565Z,42.11
2018-08-13T01:20:28.003Z,41.97
2018-08-13T01:22:03.516Z,42.22
2018-08-13T01:23:38.975Z,42.32
2018-08-13T01:25:15.879Z,43.07
2018-08-13T01:26:51.696Z,43.13
2018-08-13T01:28:27.217Z,42.77
2018-08-13T01:30:03.205Z,42.88
2018-08-13T01:31:38.702Z,42.60
2018-08-13T01:33:14.147Z,42.91
2018-08-13T01:34:49.606Z,42.39
2018-08-13T01:36:25.116Z,42.67
2018-08-13T01:38:00.624Z,43.20
2018-08-13T01:39:36.107Z,43.33
2018-08-13T01:41:11.628Z,42.66
2018-08-13T01:42:47.080Z,42.95
2018-08-13T01:44:22.536Z,42.82
2018-08-13T01:45:58.021Z,42.94
2018-08-13T01:47:33.465Z,43.28
2018-08-13T01:49:08.886Z,43.16
2018-08-13T01:50:44.285Z,43.70
2018-08-13T01:52:19.926Z,43.19
2018-08-13T01:53:55.390Z,43.32
2018-08-13T01:55:30.902Z,43.19
2018-08-13T01:57:06.444Z,42.80
2018-08-13T01:58:41.848Z,43.27
2018-08-13T02:00:17.505Z,43.12
2018-08-13T02:01:53.091Z,43.42
2018-08-13T02:03:28.358Z,43.92
2018-08-13T02:05:03.788Z,44.19
2018-08-13T02:06:39.238Z,43.92
2018-08-13T02:08:14.642Z,43.83
2018-08-13T02:09:50.098Z,43.53
2018-08-13T02:11:25.525Z,43.51
2018-08-13T02:13:00.977Z,43.61
2018-08-13T02:14:36.378Z,43.61
2018-08-13T02:16:12.087Z,43.13
2018-08-13T02:17:47.502Z,43.92
2018-08-13T02:19:23.403Z,43.96
2018-08-13T02:20:58.841Z,43.60
2018-08-13T02:22:34.285Z,43.83
2018-08-13T02:24:09.759Z,44.32
2018-08-13T02:25:45.188Z,44.25
2018-08-13T02:27:20.640Z,44.22
2018-08-13T02:28:56.105Z,44.63
2018-08-13T02:30:31.634Z,44.33
2018-08-13T02:32:07.038Z,44.12
2018-08-13T02:33:42.525Z,44.75
2018-08-13T02:35:18.306Z,44.54
2018-08-13T02:36:53.738Z,44.81
2018-08-13T02:38:29.133Z,44.90
2018-08-13T02:40:05.622Z,45.08
2018-08-13T02:41:41.244Z,45.23
2018-08-13T02:43:16.722Z,45.33
2018-08-13T02:44:52.125Z,45.21
2018-08-13T02:46:27.531Z,44.74
2018-08-13T02:48:02.947Z,44.95
2018-08-13T02:49:38.338Z,44.74
2018-08-13T02:51:13.818Z,44.75
2018-08-13T02:52:49.237Z,45.14
2018-08-13T02:54:24.627Z,44.99
2018-08-13T02:56:00.059Z,45.29
2018-08-13T02:57:35.483Z,45.40
2018-08-13T02:59:10.896Z,45.73
2018-08-13T03:00:46.369Z,45.40
2018-08-13T03:02:21.828Z,45.70
2018-08-13T03:03:57.261Z,45.93
2018-08-13T03:05:32.687Z,46.21
2018-08-13T03:07:08.148Z,45.72
2018-08-13T03:08:43.615Z,45.88
2018-08-13T03:10:19.053Z,45.79
2018-08-13T03:11:54.465Z,45.81
2018-08-13T03:13:29.885Z,46.18
2018-08-13T03:15:07.221Z,46.40
2018-08-13T03:16:42.670Z,46.75
2018-08-13T03:18:18.120Z,46.39
2018-08-13T03:19:53.532Z,46.60
2018-08-13T03:21:29.013Z,46.42
2018-08-13T03:23:04.484Z,46.54
2018-08-13T03:24:39.886Z,45.86
2018-08-13T03:26:15.356Z,45.85
2018-08-13T03:27:50.773Z,46.19
2018-08-13T03:29:26.301Z,45.80
2018-08-13T03:31:01.713Z,45.71
2018-08-13T03:32:37.364Z,45.64
2018-08-13T03:34:12.760Z,46.07
2018-08-13T03:35:48.285Z,46.08
2018-08-13T03:37:23.687Z,46.53
2018-08-13T03:38:59.134Z,46.27
2018-08-13T03:40:34.701Z,46.90
2018-08-13T03:42:10.184Z,47.22
2018-08-13T03:43:45.657Z,46.92
2018-08-13T03:45:21.110Z,46.83
2018-08-13T03:46:56.616Z,46.95
2018-08-13T03:48:32.106Z,46.89
2018-08-13T03:50:08.727Z,47.14
2018-08-13T03:51:44.164Z,46.74
2018-08-13T03:53:19.549Z,47.07
2018-08-13T03:54:54.985Z,47.03
2018-08-13T03:56:30.399Z,47.25
2018-08-13T03:58:08.516Z,47.18
2018-08-13T03:59:44.309Z,46.74
2018-08-13T04:01:19.963Z,46.65
2018-08-13T04:02:55.509Z,47.11
2018-08-13T04:04:30.962Z,46.67
2018-08-13T04:06:06.414Z,46.56
2018-08-13T04:07:41.885Z,46.63
2018-08-13T04:09:17.349Z,46.63
2018-08-13T04:10:52.771Z,46.12
2018-08-13T04:12:28.263Z,46.51
2018-08-13T04:14:04.662Z,45.76
2018-08-13T04:15:40.153Z,45.65
2018-08-13T04:17:15.648Z,45.01
2018-08-13T04:18:51.133Z,45.10
2018-08-13T04:20:26.859Z,45.34
2018-08-13T04:22:03.180Z,45.16
2018-08-13T04:23:38.664Z,45.11
2018-08-13T04:25:14.132Z,45.34
2018-08-13T04:26:49.620Z,45.47
2018-08-13T04:28:25.123Z,45.04
2018-08-13T04:30:00.616Z,45.57
2018-08-13T04:31:36.049Z,45.59
2018-08-13T04:33:11.466Z,44.99
2018-08-13T04:34:47.014Z,44.86
2018-08-13T04:36:23.086Z,44.44
2018-08-13T04:38:02.814Z,43.54
2018-08-13T04:39:38.352Z,43.96
2018-08-13T04:41:13.917Z,43.60
2018-08-13T04:42:49.541Z,43.17
2018-08-13T04:44:25.041Z,43.42
2018-08-13T04:46:00.560Z,43.27
2018-08-13T04:47:36.035Z,42.92
2018-08-13T04:49:11.585Z,42.65
2018-08-13T04:50:47.094Z,42.86
2018-08-13T04:52:22.948Z,43.27
2018-08-13T04:53:58.715Z,43.39
2018-08-13T04:55:34.224Z,42.80
2018-08-13T04:57:09.684Z,42.75
2018-08-13T04:58:45.172Z,42.45
2018-08-13T05:00:21.309Z,42.81
2018-08-13T05:01:56.808Z,42.50
2018-08-13T05:03:32.470Z,42.11
2018-08-13T05:05:09.229Z,41.92
2018-08-13T05:06:44.674Z,41.26
2018-08-13T05:08:20.151Z,41.11
2018-08-13T05:09:55.630Z,40.85
2018-08-13T05:11:31.139Z,40.56
2018-08-13T05:13:06.581Z,41.25
2018-08-13T05:14:42.200Z,41.66
2018-08-13T05:16:17.692Z,41.19
2018-08-13T05:17:53.668Z,41.10
2018-08-13T05:19:29.114Z,41.16
2018-08-13T05:21:04.621Z,40.87
2018-08-13T05:22:40.296Z,40.83
2018-08-13T05:24:15.744Z,41.07
2018-08-13T05:25:51.246Z,41.10
2018-08-13T05:27:26.693Z,40.81
2018-08-13T05:29:02.140Z,40.38
2018-08-13T05:30:37.713Z,40.59
2018-08-13T05:32:13.169Z,40.66
2018-08-13T05:33:48.695Z,40.06
2018-08-13T05:35:24.160Z,40.28
2018-08-13T05:36:59.603Z,40.11
2018-08-13T05:38:35.156Z,39.20
2018-08-13T05:40:11.153Z,39.03
2018-08-13T05:41:47.715Z,39.44
2018-08-13T05:43:23.218Z,38.55
2018-08-13T05:44:58.669Z,38.24
2018-08-13T05:46:34.282Z,38.11
2018-08-13T05:48:09.774Z,38.33
2018-08-13T05:49:45.230Z,38.41
2018-08-13T05:51:20.666Z,38.35
2018-08-13T05:52:56.179Z,38.33
2018-08-13T05:54:31.550Z,37.79
2018-08-13T05:56:06.975Z,37.67
2018-08-13T05:57:42.421Z,37.71
2018-08-13T05:59:17.858Z,37.34
2018-08-13T06:00:53.317Z,37.68
2018-08-13T06:02:28.754Z,37.34
2018-08-13T06:04:04.198Z,37.13
2018-08-13T06:05:39.684Z,36.95
2018-08-13T06:07:15.338Z,36.61
2018-08-13T06:08:50.810Z,37.05
2018-08-13T06:10:26.247Z,37.13
2018-08-13T06:12:01.679Z,37.27
2018-08-13T06:13:37.149Z,37.45
2018-08-13T06:15:13.612Z,37.43
2018-08-13T06:16:49.144Z,36.72
2018-08-13T06:18:24.599Z,37.04
2018-08-13T06:20:00.610Z,36.81
2018-08-13T06:21:36.117Z,36.57
2018-08-13T06:23:11.618Z,36.88
2018-08-13T06:24:47.152Z,36.70
2018-08-13T06:26:22.659Z,36.70
2018-08-13T06:27:58.106Z,35.87
2018-08-13T06:29:34.260Z,35.95
2018-08-13T06:31:09.714Z,35.96
2018-08-13T06:32:46.559Z,35.97
2018-08-13T06:34:22.031Z,35.57
2018-08-13T06:35:57.499Z,35.50
2018-08-13T06:37:33.621Z,35.65
2018-08-13T06:39:10.165Z,35.22
2018-08-13T06:40:45.616Z,35.43
2018-08-13T06:42:21.079Z,35.17
2018-08-13T06:43:56.586Z,34.62
2018-08-13T06:45:32.131Z,35.02
2018-08-13T06:47:07.678Z,34.61
2018-08-13T06:48:43.173Z,34.81
2018-08-13T06:50:18.652Z,34.86
2018-08-13T06:51:54.134Z,34.59
2018-08-13T06:53:29.617Z,34.41
2018-08-13T06:55:05.449Z,34.54
2018-08-13T06:56:40.938Z,34.20
2018-08-13T06:58:16.460Z,33.99
2018-08-13T06:59:52.010Z,34.08
2018-08-13T07:01:27.521Z,34.14
2018-08-13T07:03:02.994Z,34.28
2018-08-13T07:04:38.500Z,34.14
2018-08-13T07:06:14.094Z,34.04
2018-08-13T07:07:49.559Z,33.89
2018-08-13T07:09:25.091Z,34.26
2018-08-13T07:11:00.582Z,33.82
2018-08-13T07:12:36.070Z,33.67
2018-08-13T07:14:11.602Z,33.82
2018-08-13T07:15:48.105Z,34.14
2018-08-13T07:17:23.535Z,33.59
2018-08-13T07:18:59.018Z,33.31
2018-08-13T07:20:34.485Z,33.43
2018-08-13T07:22:10.030Z,33.07
2018-08-13T07:23:45.444Z,33.56
2018-08-13T07:25:22.288Z,33.77
2018-08-13T07:26:58.001Z,33.65
2018-08-13T07:28:33.552Z,33.67
2018-08-13T07:30:11.887Z,32.96
2018-08-13T07:31:47.358Z,32.82
2018-08-13T07:33:22.870Z,32.69
2018-08-13T07:34:58.422Z,33.01
2018-08-13T07:36:33.970Z,32.89
2018-08-13T07:38:09.511Z,32.45
2018-08-13T07:39:45.044Z,32.37
2018-08-13T07:41:20.506Z,32.34
2018-08-13T07:42:55.997Z,32.37
2018-08-13T07:44:31.461Z,32.16
2018-08-13T07:46:06.946Z,32.34
2018-08-13T07:47:42.644Z,31.94
2018-08-13T07:49:18.190Z,32.40
2018-08-13T07:50:53.633Z,31.40
2018-08-13T07:52:29.068Z,32.04
2018-08-13T07:54:04.758Z,31.47
2018-08-13T07:55:40.179Z,31.83
2018-08-13T07:57:15.624Z,31.72
2018-08-13T07:58:51.197Z,30.99
2018-08-13T08:00:26.738Z,30.95
2018-08-13T08:02:02.229Z,31.02
2018-08-13T08:03:38.061Z,30.98
2018-08-13T08:05:13.482Z,31.13
2018-08-13T08:06:49.024Z,30.80
2018-08-13T08:08:24.500Z,31.14
2018-08-13T08:10:00.045Z,30.59
2018-08-13T08:11:35.614Z,30.90
2018-08-13T08:13:11.126Z,30.43
2018-08-13T08:14:46.652Z,30.20
2018-08-13T08:16:22.049Z,29.94
2018-08-13T08:17:57.578Z,29.79
2018-08-13T08:19:33.100Z,29.52
2018-08-13T08:21:08.613Z,29.77
2018-08-13T08:22:44.210Z,29.14
2018-08-13T08:24:19.723Z,29.39
2018-08-13T08:25:55.230Z,29.46
2018-08-13T08:27:30.722Z,28.84
2018-08-13T08:29:07.164Z,28.75
2018-08-13T08:30:42.598Z,27.75
2018-08-13T08:32:19.089Z,27.45
2018-08-13T08:33:54.591Z,27.72
2018-08-13T08:35:30.072Z,27.23
2018-08-13T08:37:05.544Z,27.00
2018-08-13T08:38:41.066Z,26.96
2018-08-13T08:40:18.698Z,26.33
2018-08-13T08:41:54.214Z,26.40
2018-08-13T08:43:29.657Z,25.67
2018-08-13T08:45:07.977Z,24.80
2018-08-13T08:46:43.401Z,23.35
2018-08-13T08:48:18.856Z,24.06
2018-08-13T08:49:54.301Z,23.68
2018-08-13T08:51:29.793Z,23.93
2018-08-13T08:53:05.413Z,23.60
2018-08-13T08:54:40.847Z,24.91
2018-08-13T08:56:16.328Z,23.50
2018-08-13T08:57:51.911Z,23.08
2018-08-13T08:59:27.351Z,22.72
2018-08-13T09:01:02.798Z,23.72
2018-08-13T09:02:38.253Z,23.94
2018-08-13T09:04:13.764Z,23.77
2018-08-13T09:05:56.033Z,22.93
2018-08-13T09:07:31.462Z,22.65
2018-08-13T09:09:10.029Z,22.94
2018-08-13T09:10:45.445Z,22.78
2018-08-13T09:12:20.932Z,21.87
2018-08-13T09:13:56.384Z,22.40
2018-08-13T09:15:32.049Z,21.93
2018-08-13T09:17:07.504Z,21.86
2018-08-13T09:18:54.478Z,21.60
2018-08-13T09:20:41.409Z,21.83
2018-08-13T09:22:28.215Z,22.04
2018-08-13T09:24:15.516Z,23.37
2018-08-13T09:26:02.448Z,22.22
2018-08-13T09:27:49.180Z,22.39
2018-08-13T09:29:35.975Z,22.57
2018-08-13T09:31:22.803Z,22.27
2018-08-13T09:33:09.599Z,22.22
2018-08-13T09:34:51.520Z,22.41
2018-08-13T09:36:26.967Z,22.02
2018-08-13T09:38:02.457Z,21.67
2018-08-13T09:39:38.005Z,22.38
2018-08-13T09:41:13.513Z,22.01
2018-08-13T09:42:49.088Z,21.67
2018-08-13T09:44:24.562Z,22.17
2018-08-13T09:46:00.046Z,21.92
2018-08-13T09:47:35.648Z,21.64
2018-08-13T09:49:11.125Z,21.58
2018-08-13T09:50:46.613Z,21.68
2018-08-13T09:52:22.054Z,21.67
2018-08-13T09:53:57.531Z,21.51
2018-08-13T09:55:33.014Z,22.34
2018-08-13T09:57:08.428Z,21.81
2018-08-13T09:58:43.851Z,21.52
2018-08-13T10:00:25.711Z,20.53
2018-08-13T10:02:01.181Z,20.61
2018-08-13T10:03:36.619Z,20.24
2018-08-13T10:05:12.072Z,20.21
2018-08-13T10:06:47.517Z,20.47
2018-08-13T10:08:22.969Z,20.76
2018-08-13T10:09:58.383Z,21.51
2018-08-13T10:11:33.864Z,21.38
2018-08-13T10:13:09.316Z,21.37
2018-08-13T10:14:44.737Z,20.89
2018-08-13T10:16:20.171Z,20.90
2018-08-13T10:18:01.955Z,21.16
2018-08-13T10:19:37.366Z,19.99
2018-08-13T10:21:12.826Z,20.44
2018-08-13T10:22:48.467Z,20.59
2018-08-13T10:24:24.025Z,20.81
2018-08-13T10:25:59.533Z,19.92
2018-08-13T10:27:34.979Z,19.08
2018-08-13T10:29:10.428Z,19.59
2018-08-13T10:30:45.982Z,20.04
2018-08-13T10:32:21.436Z,19.06
2018-08-13T10:33:57.404Z,19.40
2018-08-13T10:35:32.864Z,20.45
2018-08-13T10:37:08.704Z,20.87
2018-08-13T10:38:44.187Z,21.02
2018-08-13T10:40:20.225Z,19.43
2018-08-13T10:41:55.796Z,19.91
2018-08-13T10:43:31.340Z,20.14
2018-08-13T10:45:07.163Z,18.87
2018-08-13T10:46:42.705Z,19.69
2018-08-13T10:48:18.226Z,20.32
2018-08-13T10:49:53.742Z,18.96
2018-08-13T10:51:29.253Z,18.83
2018-08-13T10:53:04.795Z,19.02
2018-08-13T10:54:40.290Z,19.00
2018-08-13T10:56:15.796Z,18.52
2018-08-13T10:57:51.341Z,18.21
2018-08-13T10:59:26.892Z,19.09
2018-08-13T11:01:02.546Z,18.54
2018-08-13T11:02:38.097Z,19.16
2018-08-13T11:04:13.670Z,19.86
2018-08-13T11:05:49.353Z,19.43
2018-08-13T11:07:25.311Z,20.19
2018-08-13T11:09:01.234Z,20.46
2018-08-13T11:10:36.731Z,20.54
2018-08-13T11:12:12.293Z,20.10
2018-08-13T11:13:47.789Z,20.40
2018-08-13T11:15:23.278Z,19.37
2018-08-13T11:16:58.860Z,19.75
2018-08-13T11:18:34.344Z,19.84
2018-08-13T11:20:09.851Z,19.51
2018-08-13T11:21:45.360Z,19.77
2018-08-13T11:23:20.832Z,19.57
2018-08-13T11:24:56.326Z,18.84
2018-08-13T11:26:31.984Z,19.68
2018-08-13T11:28:07.417Z,19.79
2018-08-13T11:29:45.024Z,19.91
2018-08-13T11:31:20.661Z,19.70
2018-08-13T11:32:56.063Z,19.39
2018-08-13T11:34:31.582Z,19.86
2018-08-13T11:36:07.022Z,19.98
2018-08-13T11:37:42.930Z,20.73
2018-08-13T11:39:18.376Z,20.18
2018-08-13T11:40:53.884Z,20.73
2018-08-13T11:42:29.349Z,21.12
2018-08-13T11:44:04.838Z,20.40
2018-08-13T11:45:40.375Z,20.64
2018-08-13T11:47:15.851Z,20.72
2018-08-13T11:48:51.330Z,20.89
2018-08-13T11:50:26.864Z,20.77
2018-08-13T11:52:02.327Z,21.29
2018-08-13T11:53:37.829Z,21.68
2018-08-13T11:55:13.409Z,21.21
2018-08-13T11:56:48.867Z,21.44
2018-08-13T11:58:24.305Z,20.99
2018-08-13T12:00:00.175Z,21.25
2018-08-13T12:01:35.641Z,21.00
2018-08-13T12:03:11.190Z,21.28
2018-08-13T12:04:46.673Z,20.99
2018-08-13T12:06:22.146Z,21.63
2018-08-13T12:07:57.613Z,21.34
2018-08-13T12:09:33.072Z,21.30
2018-08-13T12:11:08.510Z,21.53
2018-08-13T12:12:44.522Z,21.38
2018-08-13T12:14:27.867Z,21.81
2018-08-13T12:16:03.367Z,21.62
2018-08-13T12:17:43.259Z,22.10
2018-08-13T12:19:20.762Z,21.75
2018-08-13T12:20:56.861Z,22.46
2018-08-13T12:22:32.600Z,21.46
2018-08-13T12:24:08.051Z,22.13
2018-08-13T12:25:43.571Z,21.61
2018-08-13T12:27:19.130Z,21.05
2018-08-13T12:28:54.678Z,21.17
2018-08-13T12:30:30.717Z,20.94
2018-08-13T12:32:06.560Z,21.58
2018-08-13T12:33:42.042Z,21.25
2018-08-13T12:35:17.772Z,21.40
2018-08-13T12:36:57.496Z,21.24
2018-08-13T12:38:33.041Z,20.41
2018-08-13T12:40:09.476Z,21.16
2018-08-13T12:41:44.946Z,21.22
2018-08-13T12:43:20.462Z,21.07
2018-08-13T12:44:56.018Z,20.93
2018-08-13T12:46:31.569Z,20.76
2018-08-13T12:48:07.241Z,20.63
2018-08-13T12:49:42.747Z,20.69
2018-08-13T12:51:18.318Z,21.18
2018-08-13T12:52:53.778Z,20.59
2018-08-13T12:54:29.236Z,21.29
2018-08-13T12:56:04.810Z,21.62
2018-08-13T12:57:40.279Z,20.91
2018-08-13T12:59:17.622Z,21.14
2018-08-13T13:00:59.200Z,21.47
2018-08-13T13:02:34.644Z,20.94
2018-08-13T13:04:10.344Z,20.56
2018-08-13T13:05:45.802Z,21.14
2018-08-13T13:07:21.297Z,21.22
2018-08-13T13:08:56.834Z,21.93
2018-08-13T13:10:32.298Z,21.43
2018-08-13T13:12:07.857Z,21.84
2018-08-13T13:13:43.415Z,21.52
2018-08-13T13:15:20.078Z,21.18
2018-08-13T13:16:55.504Z,21.43
2018-08-13T13:18:30.945Z,21.92
2018-08-13T13:20:07.680Z,22.19
2018-08-13T13:21:43.139Z,22.88
2018-08-13T13:23:18.621Z,22.34
2018-08-13T13:24:54.056Z,23.59
2018-08-13T13:26:29.664Z,24.16
2018-08-13T13:28:05.200Z,24.20
2018-08-13T13:29:40.961Z,24.19
2018-08-13T13:31:16.554Z,25.11
2018-08-13T13:32:52.053Z,25.21
2018-08-13T13:34:27.514Z,25.41
2018-08-13T13:36:02.999Z,26.08
2018-08-13T13:37:38.534Z,26.89
2018-08-13T13:39:14.193Z,26.66
2018-08-13T13:40:50.037Z,28.93
2018-08-13T13:42:25.525Z,29.66
2018-08-13T13:44:01.010Z,29.53
2018-08-13T13:45:36.541Z,29.12
2018-08-13T13:47:12.041Z,29.47
2018-08-13T13:48:47.524Z,29.76
2018-08-13T13:50:23.415Z,29.55
2018-08-13T13:51:58.977Z,29.90
2018-08-13T13:53:34.530Z,30.82
2018-08-13T13:55:09.978Z,30.77
2018-08-13T13:56:45.450Z,30.34
2018-08-13T13:58:20.919Z,30.61
2018-08-13T13:59:56.326Z,30.85
2018-08-13T14:01:31.804Z,31.57
2018-08-13T14:03:07.355Z,31.15
2018-08-13T14:04:42.860Z,31.03
2018-08-13T14:06:18.448Z,31.40
2018-08-13T14:07:53.890Z,32.65
2018-08-13T14:09:29.384Z,33.79
2018-08-13T14:11:10.095Z,34.61
2018-08-13T14:12:46.016Z,34.70
2018-08-13T14:14:21.474Z,33.97
2018-08-13T14:15:57.010Z,35.15
2018-08-13T14:17:32.557Z,35.34
2018-08-13T14:19:08.342Z,35.19
2018-08-13T14:20:43.949Z,34.95
2018-08-13T14:22:22.011Z,36.56
2018-08-13T14:23:57.811Z,37.26
2018-08-13T14:25:33.249Z,36.65
2018-08-13T14:27:08.830Z,36.63
2018-08-13T14:28:44.322Z,37.09
2018-08-13T14:30:21.936Z,37.93
2018-08-13T14:31:57.449Z,38.57
2018-08-13T14:33:32.996Z,39.48
2018-08-13T14:35:09.561Z,40.71
2018-08-13T14:36:45.194Z,41.09
2018-08-13T14:38:20.731Z,41.50
2018-08-13T14:39:56.311Z,41.95
2018-08-13T14:41:32.102Z,42.24
2018-08-13T14:43:07.613Z,42.19
2018-08-13T14:44:43.144Z,43.77
2018-08-13T14:46:18.741Z,44.51
2018-08-13T14:47:54.321Z,44.33
2018-08-13T14:49:29.944Z,44.76
2018-08-13T14:51:06.152Z,43.28
2018-08-13T14:52:43.262Z,42.66
2018-08-13T14:54:18.818Z,39.97
2018-08-13T14:55:54.464Z,39.61
2018-08-13T14:57:29.927Z,38.80
2018-08-13T14:59:06.219Z,38.19
2018-08-13T15:00:41.731Z,38.54
2018-08-13T15:02:17.333Z,36.88
2018-08-13T15:03:53.057Z,36.22
2018-08-13T15:05:28.608Z,35.43
2018-08-13T15:07:04.388Z,34.81
2018-08-13T15:08:39.945Z,34.01
2018-08-13T15:10:18.149Z,34.94
2018-08-13T15:11:53.643Z,35.17
2018-08-13T15:13:29.180Z,35.09
2018-08-13T15:15:06.830Z,35.59
2018-08-13T15:16:42.378Z,35.93
2018-08-13T15:18:17.925Z,35.52
2018-08-13T15:19:53.419Z,35.18
2018-08-13T15:21:28.858Z,35.59
2018-08-13T15:23:04.315Z,34.98
2018-08-13T15:24:40.967Z,35.26
2018-08-13T15:26:17.454Z,35.09
2018-08-13T15:27:53.102Z,35.43
2018-08-13T15:29:28.606Z,34.62
2018-08-13T15:31:04.169Z,34.72
2018-08-13T15:32:39.777Z,34.91
2018-08-13T15:34:15.212Z,34.67
2018-08-13T15:35:50.695Z,35.10
2018-08-13T15:37:26.203Z,35.11
2018-08-13T15:39:01.845Z,35.91
2018-08-13T15:40:37.314Z,36.28
2018-08-13T15:42:12.808Z,37.05
2018-08-13T15:43:48.489Z,36.05
2018-08-13T15:45:24.566Z,35.49
2018-08-13T15:47:00.096Z,36.82
2018-08-13T15:48:35.586Z,37.49
2018-08-13T15:50:12.829Z,37.74
2018-08-13T15:51:48.320Z,38.39
2018-08-13T15:53:23.819Z,38.71
2018-08-13T15:54:59.321Z,38.29
2018-08-13T15:56:34.791Z,37.65
2018-08-13T15:58:10.578Z,36.68
2018-08-13T15:59:46.095Z,36.20
2018-08-13T16:01:21.683Z,36.55
2018-08-13T16:02:57.317Z,36.21
2018-08-13T16:04:32.799Z,36.27
2018-08-13T16:06:08.271Z,34.97
2018-08-13T16:07:44.620Z,36.86
2018-08-13T16:09:20.143Z,37.21
2018-08-13T16:10:57.887Z,37.05
2018-08-13T16:12:33.360Z,37.51
2018-08-13T16:14:09.207Z,38.07
2018-08-13T16:15:44.688Z,38.62
2018-08-13T16:17:20.212Z,37.83
2018-08-13T16:18:55.711Z,37.40
2018-08-13T16:20:31.237Z,36.46
2018-08-13T16:22:06.756Z,36.10
2018-08-13T16:23:42.272Z,35.78
2018-08-13T16:25:18.323Z,35.85
2018-08-13T16:26:53.950Z,37.44
2018-08-13T16:28:29.491Z,36.32
2018-08-13T16:30:15.010Z,35.75
2018-08-13T16:31:50.495Z,36.48
2018-08-13T16:33:26.077Z,35.39
2018-08-13T16:35:01.735Z,34.93
2018-08-13T16:36:37.145Z,35.36
2018-08-13T16:38:12.714Z,34.76
2018-08-13T16:39:48.238Z,34.79
2018-08-13T16:41:23.684Z,35.00
2018-08-13T16:42:59.340Z,34.18
2018-08-13T16:44:34.799Z,34.49
2018-08-13T16:46:10.272Z,33.70
2018-08-13T16:47:45.894Z,33.92
2018-08-13T16:49:21.537Z,34.32
2018-08-13T16:50:58.009Z,34.80
2018-08-13T16:52:33.778Z,34.15
2018-08-13T16:54:09.298Z,34.79
2018-08-13T16:55:44.898Z,34.09
2018-08-13T16:57:20.338Z,34.32
2018-08-13T16:58:56.133Z,34.90
2018-08-13T17:00:32.643Z,36.02
2018-08-13T17:02:08.133Z,36.06
2018-08-13T17:03:43.643Z,35.71
2018-08-13T17:05:19.205Z,34.89
2018-08-13T17:06:54.816Z,34.87
2018-08-13T17:08:30.452Z,35.66
2018-08-13T17:10:08.787Z,34.58
2018-08-13T17:11:44.397Z,35.13
2018-08-13T17:13:20.852Z,36.15
2018-08-13T17:14:57.719Z,34.59
2018-08-13T17:16:33.406Z,34.19
2018-08-13T17:18:09.067Z,34.67
2018-08-13T17:19:44.802Z,34.27
2018-08-13T17:21:20.299Z,34.05
2018-08-13T17:22:55.826Z,33.59
2018-08-13T17:24:31.327Z,32.76
2018-08-13T17:26:13.465Z,33.07
2018-08-13T17:27:49.014Z,33.46
2018-08-13T17:29:24.752Z,33.28
2018-08-13T17:31:01.444Z,33.46
2018-08-13T17:32:36.901Z,33.54
2018-08-13T17:34:12.434Z,33.47
2018-08-13T17:35:47.933Z,33.05
2018-08-13T17:37:23.508Z,33.77
2018-08-13T17:38:59.024Z,32.91
2018-08-13T17:40:34.483Z,33.24
2018-08-13T17:42:10.256Z,33.65
2018-08-13T17:43:46.817Z,33.23
2018-08-13T17:45:22.396Z,33.21
2018-08-13T17:46:58.891Z,33.55
2018-08-13T17:48:34.353Z,33.44
2018-08-13T17:50:11.965Z,33.58
2018-08-13T17:51:48.297Z,34.74
2018-08-13T17:53:23.778Z,35.55
2018-08-13T17:54:59.333Z,35.10
2018-08-13T17:56:34.951Z,34.97
2018-08-13T17:58:10.720Z,35.31
2018-08-13T17:59:46.252Z,35.33
2018-08-13T18:01:21.681Z,35.81
2018-08-13T18:02:57.177Z,35.73
2018-08-13T18:04:32.643Z,35.33
2018-08-13T18:06:08.165Z,35.64
2018-08-13T18:07:43.741Z,35.77
2018-08-13T18:09:19.234Z,35.67
2018-08-13T18:10:54.731Z,36.08
2018-08-13T18:12:30.273Z,36.18
2018-08-13T18:14:06.091Z,36.49
2018-08-13T18:15:41.603Z,36.44
2018-08-13T18:17:17.126Z,36.44
2018-08-13T18:18:52.920Z,36.91
2018-08-13T18:20:28.525Z,36.33
2018-08-13T18:22:04.079Z,36.93
2018-08-13T18:23:39.620Z,36.96
2018-08-13T18:25:15.640Z,37.41
2018-08-13T18:26:51.167Z,37.15
2018-08-13T18:28:26.622Z,37.37
2018-08-13T18:30:02.106Z,37.94
2018-08-13T18:31:37.645Z,37.67
2018-08-13T18:33:14.183Z,37.99
2018-08-13T18:34:49.665Z,37.83
2018-08-13T18:36:25.232Z,38.51
2018-08-13T18:38:00.797Z,38.86
2018-08-13T18:39:36.302Z,39.04
2018-08-13T18:41:11.880Z,39.59
2018-08-13T18:42:47.424Z,39.75
2018-08-13T18:44:22.920Z,39.21
2018-08-13T18:45:59.168Z,39.46
2018-08-13T18:47:34.716Z,39.17
2018-08-13T18:49:10.571Z,39.36
2018-08-13T18:50:48.048Z,39.15
2018-08-13T18:52:25.622Z,39.62
2018-08-13T18:54:01.251Z,39.75
2018-08-13T18:55:36.777Z,39.94
2018-08-13T18:57:12.408Z,40.13
2018-08-13T18:58:48.676Z,39.88
2018-08-13T19:00:27.881Z,39.84
2018-08-13T19:02:04.037Z,40.73
2018-08-13T19:03:39.976Z,40.76
2018-08-13T19:05:18.796Z,40.45
2018-08-13T19:06:55.227Z,40.64
2018-08-13T19:08:33.589Z,40.62
2018-08-13T19:10:10.705Z,40.95
2018-08-13T19:11:46.164Z,40.82
2018-08-13T19:13:21.631Z,41.03
2018-08-13T19:14:57.077Z,41.80
2018-08-13T19:16:32.662Z,41.41
2018-08-13T19:18:08.143Z,41.80
2018-08-13T19:19:43.709Z,41.89
2018-08-13T19:21:19.383Z,41.64
2018-08-13T19:22:54.897Z,42.12
2018-08-13T19:24:32.561Z,41.44
2018-08-13T19:26:08.558Z,41.92
2018-08-13T19:27:44.515Z,41.53
2018-08-13T19:29:20.036Z,41.83
2018-08-13T19:30:55.531Z,41.96
2018-08-13T19:32:31.025Z,41.88
2018-08-13T19:34:07.133Z,42.48
2018-08-13T19:35:42.776Z,42.39
2018-08-13T19:37:18.503Z,41.98
2018-08-13T19:38:54.268Z,42.17
2018-08-13T19:40:30.030Z,42.48
2018-08-13T19:42:05.587Z,43.02
2018-08-13T19:43:41.194Z,43.13
2018-08-13T19:45:17.838Z,42.63
2018-08-13T19:46:53.355Z,43.46
2018-08-13T19:48:28.873Z,42.79
2018-08-13T19:50:05.644Z,42.97
2018-08-13T19:51:42.251Z,43.46
2018-08-13T19:53:17.768Z,43.51
2018-08-13T19:54:53.305Z,44.05
2018-08-13T19:56:28.869Z,44.46
2018-08-13T19:58:04.452Z,44.63
2018-08-13T19:59:40.005Z,44.62
2018-08-13T20:01:15.581Z,43.92
2018-08-13T20:02:51.451Z,44.37
2018-08-13T20:04:26.973Z,44.48
2018-08-13T20:06:02.533Z,44.81
2018-08-13T20:07:38.273Z,44.38
2018-08-13T20:09:13.780Z,45.14
2018-08-13T20:10:49.368Z,45.78
2018-08-13T20:12:24.898Z,45.62
2018-08-13T20:14:00.452Z,45.85
2018-08-13T20:15:35.991Z,46.00
2018-08-13T20:17:11.613Z,46.62
2018-08-13T20:18:47.174Z,46.13
2018-08-13T20:20:22.814Z,46.30
2018-08-13T20:21:58.562Z,46.11
2018-08-13T20:23:34.136Z,46.15
2018-08-13T20:25:11.244Z,45.96
2018-08-13T20:26:46.751Z,45.86
2018-08-13T20:28:22.249Z,45.09
2018-08-13T20:29:57.794Z,45.25
2018-08-13T20:31:33.305Z,45.00
2018-08-13T20:33:08.815Z,45.04
2018-08-13T20:34:44.295Z,44.80